Palm Bay, Florida
Current Conditions -  °F | °C
As of 7:53 PM on Tuesday 27 Jan 2015 (Local Time) from KMLB Reporting Station
Clear Clear  
Wind Chill: 59°   Ceiling: Unl
Heat Index: 59°   Visibility: 10mi
Dew Point: 47°   Wind: 9mph
Humidity: 64%   Direction: 260°W
Pressure: 29.98"   Gusts: NA
Location:  28°N, 80.67°W
Report Text: KMLB 280053Z 26008KT 10SM CLR 15/08 A2998 RMK AO2 SLP150 T01500083
Loading
Personal Weather Stations






























Interactive Weather Map New forecast layout! Learn more

10-Day Weather Forecast

Advertisements
Track Severe Weather on mobile